createdAt,value
2023-05-07T00:03:36.440Z,22.77
2023-05-07T00:08:44.969Z,23.37
2023-05-07T00:13:53.054Z,24.97
2023-05-07T00:19:07.636Z,28.83
2023-05-07T00:24:13.122Z,26.77
2023-05-07T00:29:20.719Z,21.00
2023-05-07T00:34:29.774Z,26.03
2023-05-07T00:39:37.163Z,22.23
2023-05-07T00:44:44.089Z,23.43
2023-05-07T00:49:53.020Z,23.30
2023-05-07T00:54:59.333Z,24.70
2023-05-07T01:00:07.508Z,21.27
2023-05-07T01:05:18.226Z,20.97
2023-05-07T01:10:23.993Z,24.70
2023-05-07T01:15:29.688Z,23.07
2023-05-07T01:20:44.102Z,22.13
2023-05-07T01:26:01.220Z,20.77
2023-05-07T01:31:10.580Z,21.40
2023-05-07T01:36:22.392Z,18.50
2023-05-07T01:41:30.759Z,20.83
2023-05-07T01:46:40.332Z,23.07
2023-05-07T01:51:48.377Z,21.13
2023-05-07T01:56:57.579Z,18.77
2023-05-07T02:02:02.843Z,18.53
2023-05-07T02:07:11.343Z,16.97
2023-05-07T02:12:21.007Z,18.67
2023-05-07T02:17:26.771Z,22.40
2023-05-07T02:22:36.569Z,20.10
2023-05-07T02:27:46.822Z,22.50
2023-05-07T02:32:56.241Z,22.57
2023-05-07T02:38:01.594Z,26.03
2023-05-07T02:43:12.272Z,24.37
2023-05-07T02:48:22.023Z,24.37
2023-05-07T02:53:27.494Z,23.00
2023-05-07T02:58:35.874Z,22.47
2023-05-07T03:03:44.709Z,20.83
2023-05-07T03:08:51.867Z,21.73
2023-05-07T03:14:02.963Z,23.33
2023-05-07T03:19:08.775Z,26.70
2023-05-07T03:24:15.944Z,29.23
2023-05-07T03:29:28.068Z,31.80
2023-05-07T03:34:33.383Z,28.60
2023-05-07T03:39:41.173Z,33.67
2023-05-07T03:44:49.585Z,30.77
2023-05-07T03:49:57.084Z,32.67
2023-05-07T03:55:04.874Z,31.43
2023-05-07T04:00:19.030Z,26.60
2023-05-07T04:05:28.498Z,26.77
2023-05-07T04:10:40.181Z,27.40
2023-05-07T04:15:53.565Z,30.10
2023-05-07T04:21:01.160Z,27.67
2023-05-07T04:26:08.896Z,28.33
2023-05-07T04:31:23.123Z,26.77
2023-05-07T04:36:31.753Z,27.13
2023-05-07T04:41:41.167Z,26.60
2023-05-07T04:46:52.270Z,30.33
2023-05-07T04:51:57.577Z,32.30
2023-05-07T04:57:03.470Z,31.33
2023-05-07T05:02:20.966Z,23.87
2023-05-07T05:07:28.242Z,25.80
2023-05-07T05:12:34.134Z,23.40
2023-05-07T05:17:44.469Z,21.47
2023-05-07T05:22:50.245Z,20.53
2023-05-07T05:27:59.404Z,20.30
2023-05-07T05:33:07.740Z,20.77
2023-05-07T05:38:15.388Z,21.43
2023-05-07T05:43:21.023Z,22.30
2023-05-07T05:48:33.006Z,17.73
2023-05-07T05:53:40.792Z,14.67
2023-05-07T05:58:49.390Z,15.90
2023-05-07T06:03:57.733Z,16.40
2023-05-07T06:09:03.127Z,14.97
2023-05-07T06:14:18.018Z,18.00
2023-05-07T06:19:30.725Z,20.67
2023-05-07T06:24:40.336Z,17.20
2023-05-07T06:29:47.460Z,18.27
2023-05-07T06:34:59.628Z,14.40
2023-05-07T06:40:08.666Z,12.13
2023-05-07T06:45:17.041Z,10.40
2023-05-07T06:50:27.950Z,10.17
2023-05-07T06:55:39.442Z,8.70
2023-05-07T07:00:48.245Z,12.03
2023-05-07T07:05:58.723Z,9.70
2023-05-07T07:11:05.257Z,8.57
2023-05-07T07:16:11.580Z,7.27
2023-05-07T07:21:25.326Z,7.53
2023-05-07T07:26:31.178Z,6.37
2023-05-07T07:31:36.971Z,7.00
2023-05-07T07:36:46.843Z,6.77
2023-05-07T07:41:56.628Z,10.10
2023-05-07T07:47:05.399Z,7.77
2023-05-07T07:52:20.933Z,8.07
2023-05-07T07:57:26.625Z,7.90
2023-05-07T08:02:34.302Z,9.13
2023-05-07T08:07:42.637Z,8.73
2023-05-07T08:12:51.646Z,8.30
2023-05-07T08:17:58.774Z,10.03
2023-05-07T08:23:07.413Z,9.83
2023-05-07T08:28:13.747Z,9.67
2023-05-07T08:33:20.188Z,12.53
2023-05-07T08:38:31.609Z,13.83
2023-05-07T08:43:42.362Z,12.03
2023-05-07T08:48:51.784Z,11.53
2023-05-07T08:54:03.472Z,12.87
2023-05-07T08:59:11.481Z,13.00
2023-05-07T09:04:22.986Z,11.73
2023-05-07T09:09:32.749Z,12.37
2023-05-07T09:14:38.389Z,10.93
2023-05-07T09:19:47.855Z,10.10
2023-05-07T09:24:57.027Z,12.60
2023-05-07T09:30:16.559Z,13.93
2023-05-07T09:35:23.297Z,12.13
2023-05-07T09:40:36.981Z,14.43
2023-05-07T09:45:54.801Z,12.97
2023-05-07T09:51:08.812Z,11.50
2023-05-07T09:56:21.102Z,12.57
2023-05-07T10:01:31.194Z,12.43
2023-05-07T10:06:39.106Z,11.80
2023-05-07T10:11:57.422Z,13.03
2023-05-07T10:17:04.786Z,11.03
2023-05-07T10:22:11.895Z,10.27
2023-05-07T10:27:26.510Z,9.83
2023-05-07T10:32:43.243Z,13.70
2023-05-07T10:37:55.365Z,11.40
2023-05-07T10:43:10.684Z,8.97
2023-05-07T10:48:30.511Z,10.43
2023-05-07T10:54:28.859Z,8.77
2023-05-07T10:59:51.216Z,8.60
2023-05-07T11:05:24.649Z,7.93
2023-05-07T11:10:57.560Z,7.43
2023-05-07T11:16:29.161Z,9.90
2023-05-07T11:21:45.876Z,8.27
2023-05-07T11:27:27.790Z,8.00
2023-05-07T11:32:37.506Z,9.30
2023-05-07T11:37:43.417Z,6.97
2023-05-07T11:42:56.534Z,7.60
2023-05-07T11:48:07.128Z,7.80
2023-05-07T11:53:15.286Z,7.97
2023-05-07T11:58:27.715Z,7.20
2023-05-07T12:03:36.404Z,7.80
2023-05-07T12:08:47.051Z,7.40
2023-05-07T12:14:01.192Z,7.60
2023-05-07T12:19:21.001Z,7.47
2023-05-07T12:24:27.800Z,6.50
2023-05-07T12:29:34.092Z,6.83
2023-05-07T12:34:45.439Z,9.07
2023-05-07T12:39:55.909Z,5.60
2023-05-07T12:45:09.520Z,5.60
2023-05-07T12:50:22.253Z,5.53
2023-05-07T12:55:29.223Z,5.60
2023-05-07T13:00:44.697Z,5.10
2023-05-07T13:05:58.480Z,5.67
2023-05-07T13:11:08.206Z,6.07
2023-05-07T13:16:15.387Z,6.90
2023-05-07T13:21:24.571Z,5.83
2023-05-07T13:26:35.518Z,6.93
2023-05-07T13:31:47.716Z,4.77
2023-05-07T13:37:03.855Z,5.00
2023-05-07T13:42:17.956Z,7.33
2023-05-07T13:47:25.752Z,5.00
2023-05-07T13:52:33.756Z,5.83
2023-05-07T13:57:39.424Z,5.50
2023-05-07T14:02:47.314Z,4.60
2023-05-07T14:07:55.689Z,3.90
2023-05-07T14:13:00.871Z,4.10
2023-05-07T14:18:09.522Z,6.13
2023-05-07T14:23:23.316Z,6.80
2023-05-07T14:28:28.402Z,7.67
2023-05-07T14:33:36.511Z,5.70
2023-05-07T14:38:46.117Z,5.87
2023-05-07T14:43:51.465Z,4.90
2023-05-07T14:49:01.812Z,7.90
2023-05-07T14:54:12.012Z,5.83
2023-05-07T14:59:19.964Z,7.20
2023-05-07T15:04:27.821Z,7.67
2023-05-07T15:09:40.929Z,7.93
2023-05-07T15:14:48.589Z,6.17
2023-05-07T15:19:56.366Z,8.97
2023-05-07T15:25:05.456Z,9.23
2023-05-07T15:30:12.713Z,7.93
2023-05-07T15:35:18.790Z,7.30
2023-05-07T15:40:30.557Z,6.13
2023-05-07T15:45:44.695Z,6.70
2023-05-07T15:50:50.914Z,7.27
2023-05-07T15:56:02.102Z,8.00
2023-05-07T16:01:14.420Z,8.93
2023-05-07T16:06:20.331Z,8.23
2023-05-07T16:11:30.584Z,8.53
2023-05-07T16:16:42.264Z,6.87
2023-05-07T16:21:47.579Z,7.90
2023-05-07T16:26:56.724Z,8.87
2023-05-07T16:32:07.854Z,8.50
2023-05-07T16:37:21.751Z,6.50
2023-05-07T16:42:37.052Z,6.87
2023-05-07T16:47:44.288Z,7.13
2023-05-07T16:52:52.443Z,7.13
2023-05-07T16:58:03.704Z,6.30
2023-05-07T17:03:09.417Z,9.07
2023-05-07T17:08:14.740Z,6.53
2023-05-07T17:13:28.603Z,6.47
2023-05-07T17:18:35.924Z,7.20
2023-05-07T17:23:42.605Z,7.10
2023-05-07T17:28:50.443Z,6.07
2023-05-07T17:33:59.549Z,6.20
2023-05-07T17:39:09.661Z,6.77
2023-05-07T17:44:17.988Z,8.53
2023-05-07T17:49:25.161Z,10.83
2023-05-07T17:54:33.346Z,8.17
2023-05-07T17:59:41.294Z,9.13
2023-05-07T18:04:49.435Z,9.40
2023-05-07T18:09:54.649Z,8.43
2023-05-07T18:15:07.377Z,8.47
2023-05-07T18:20:17.284Z,7.33
2023-05-07T18:25:25.911Z,8.63
2023-05-07T18:30:41.316Z,7.93
2023-05-07T18:35:54.455Z,7.73
2023-05-07T18:41:06.586Z,10.63
2023-05-07T18:46:15.401Z,8.93
2023-05-07T18:51:23.841Z,8.53
2023-05-07T18:56:34.698Z,9.07
2023-05-07T19:01:45.841Z,8.43
2023-05-07T19:06:54.789Z,9.43
2023-05-07T19:12:04.633Z,9.07
2023-05-07T19:17:19.483Z,9.40
2023-05-07T19:22:25.368Z,8.10
2023-05-07T19:27:31.832Z,8.63
2023-05-07T19:32:40.377Z,10.33
2023-05-07T19:37:48.096Z,8.30
2023-05-07T19:42:53.707Z,8.30
2023-05-07T19:48:04.721Z,9.67
2023-05-07T19:53:10.354Z,8.97
2023-05-07T19:58:17.657Z,8.43
2023-05-07T20:03:28.038Z,9.33
2023-05-07T20:08:33.531Z,9.90
2023-05-07T20:13:39.051Z,7.97
2023-05-07T20:18:49.608Z,8.43
2023-05-07T20:23:54.774Z,8.50
2023-05-07T20:29:00.047Z,7.07
2023-05-07T20:34:10.308Z,6.60
2023-05-07T20:39:18.296Z,6.10
2023-05-07T20:44:28.454Z,5.93
2023-05-07T20:49:36.445Z,8.50
2023-05-07T20:54:44.116Z,7.10
2023-05-07T20:59:49.492Z,8.40
2023-05-07T21:05:04.462Z,9.53
2023-05-07T21:10:13.256Z,6.97
2023-05-07T21:15:18.908Z,5.73
2023-05-07T21:20:26.671Z,6.20
2023-05-07T21:25:32.216Z,7.17
2023-05-07T21:30:38.602Z,7.27
2023-05-07T21:35:46.852Z,6.97
2023-05-07T21:40:51.907Z,8.27
2023-05-07T21:45:58.111Z,8.33
2023-05-07T21:51:12.906Z,7.77
2023-05-07T21:56:18.093Z,8.07
2023-05-07T22:01:23.476Z,7.83
2023-05-07T22:06:31.539Z,7.30
2023-05-07T22:11:36.625Z,7.53
2023-05-07T22:16:42.057Z,7.93
2023-05-07T22:21:49.977Z,9.43
2023-05-07T22:26:55.140Z,8.57
2023-05-07T22:32:00.683Z,10.67
2023-05-07T22:37:11.052Z,8.63
2023-05-07T22:42:16.360Z,10.57
2023-05-07T22:47:23.396Z,8.70
2023-05-07T22:52:31.418Z,8.30
2023-05-07T22:57:36.664Z,8.70
2023-05-07T23:02:42.065Z,8.87
2023-05-07T23:07:49.935Z,8.40
2023-05-07T23:12:56.076Z,10.47
2023-05-07T23:18:03.631Z,8.70
2023-05-07T23:23:13.871Z,10.17
2023-05-07T23:28:20.869Z,9.47
2023-05-07T23:33:28.300Z,9.47
2023-05-07T23:38:36.112Z,10.07
2023-05-07T23:43:42.462Z,9.30
2023-05-07T23:48:49.627Z,13.03
2023-05-07T23:53:57.412Z,9.27
2023-05-07T23:59:04.017Z,9.97
